Time;durP1;ratioP1;P1;durP2;ratioP2;P2;SDS_P1;SDS_P2;PMS_P1;PMS_P2;Temp;Humidity;BMP_temperature;BMP_pressure;BME280_temperature;BME280_humidity;BME280_pressure;Samples;Min_cycle;Max_cycle;Signal;HPM_P1;HPM_P2
2022/06/15 00:02:08;;;;;;;6.47;1.63;;;18.60;80.30;;;;;;5081061;28;45331;-75
2022/06/15 00:04:37;;;;;;;4.15;1.30;;;18.60;80.50;;;;;;5085280;28;45184;-75
2022/06/15 00:07:04;;;;;;;6.10;1.52;;;18.60;80.20;;;;;;5083800;27;46649;-75
2022/06/15 00:09:31;;;;;;;5.50;1.67;;;18.60;80.10;;;;;;5082064;27;45329;-75
2022/06/15 00:11:58;;;;;;;5.25;1.48;;;18.60;80.60;;;;;;5080320;27;45415;-75
2022/06/15 00:14:27;;;;;;;7.00;1.70;;;18.60;80.80;;;;;;5087555;27;45414;-75
2022/06/15 00:16:55;;;;;;;8.38;1.90;;;18.60;80.80;;;;;;5079448;28;48169;-75
2022/06/15 00:19:22;;;;;;;5.85;1.50;;;18.60;80.70;;;;;;5078807;28;46924;-75
2022/06/15 00:21:50;;;;;;;6.28;1.42;;;18.60;81.40;;;;;;5084311;28;45444;-75
2022/06/15 00:24:17;;;;;;;5.65;1.58;;;18.60;81.20;;;;;;5084327;27;45254;-75
2022/06/15 00:26:44;;;;;;;6.97;1.48;;;18.60;81.40;;;;;;5085570;27;47193;-75
2022/06/15 00:29:12;;;;;;;5.13;1.45;;;18.60;81.30;;;;;;5088823;27;45473;-75
2022/06/15 00:31:39;;;;;;;5.50;1.95;;;18.50;81.90;;;;;;5084481;28;45305;-75
2022/06/15 00:34:06;;;;;;;5.80;1.50;;;18.40;81.50;;;;;;5083103;28;45413;-75
2022/06/15 00:36:33;;;;;;;3.90;1.38;;;18.40;82.40;;;;;;5089322;27;46368;-75
2022/06/15 00:39:03;;;;;;;4.72;1.55;;;18.30;83.20;;;;;;5092487;27;45271;-75
2022/06/15 00:41:33;;;;;;;10.38;1.98;;;18.50;83.50;;;;;;5080813;28;45356;-75
2022/06/15 00:44:02;;;;;;;5.80;1.58;;;18.30;83.40;;;;;;5081558;28;45184;-75
2022/06/15 00:46:34;;;;;;;6.45;1.73;;;18.20;83.60;;;;;;5081196;28;46424;-75
2022/06/15 00:49:05;;;;;;;6.85;2.03;;;18.20;82.90;;;;;;5082069;27;45312;-75
2022/06/15 00:51:32;;;;;;;3.72;1.38;;;18.20;83.50;;;;;;5084250;27;45252;-75
2022/06/15 00:54:02;;;;;;;3.00;1.35;;;18.20;83.40;;;;;;5092447;27;45499;-75
2022/06/15 00:56:31;;;;;;;4.25;1.77;;;18.10;83.90;;;;;;5092131;27;45509;-75
2022/06/15 00:59:02;;;;;;;3.40;1.50;;;18.00;83.00;;;;;;5091274;27;45258;-75
2022/06/15 01:01:29;;;;;;;5.45;1.77;;;18.10;83.60;;;;;;5090430;27;45342;-75
2022/06/15 01:03:58;;;;;;;5.38;1.95;;;17.80;83.90;;;;;;5081157;28;45357;-75
2022/06/15 01:06:35;;;;;;;5.82;1.98;;;17.80;83.90;;;;;;5088708;27;48211;-75
2022/06/15 01:09:09;;;;;;;4.80;1.90;;;17.80;84.30;;;;;;5085310;27;45566;-75
2022/06/15 01:11:46;;;;;;;5.78;1.95;;;17.80;84.60;;;;;;5088855;27;45386;-75
2022/06/15 01:14:31;;;;;;;6.78;2.08;;;17.90;84.40;;;;;;5081044;28;45168;-75
2022/06/15 01:17:06;;;;;;;6.75;1.90;;;17.70;84.40;;;;;;5076486;28;47430;-75
2022/06/15 01:20:03;;;;;;;6.63;2.33;;;17.90;84.40;;;;;;5078977;28;45327;-75
2022/06/15 01:22:47;;;;;;;11.38;2.30;;;17.70;84.50;;;;;;5082176;28;45340;-75
2022/06/15 01:25:36;;;;;;;6.10;2.03;;;17.80;84.50;;;;;;5089040;27;45340;-75
2022/06/15 01:28:18;;;;;;;4.15;1.67;;;17.90;84.40;;;;;;5083271;27;48289;-75
2022/06/15 01:30:51;;;;;;;4.72;2.05;;;17.90;84.90;;;;;;5081826;28;45168;-75
2022/06/15 01:33:27;;;;;;;13.45;2.13;;;17.80;86.30;;;;;;5088289;28;45169;-75
2022/06/15 01:36:04;;;;;;;7.82;1.80;;;17.80;85.20;;;;;;5079197;28;45498;-75
2022/06/15 01:38:41;;;;;;;4.88;1.50;;;17.80;85.10;;;;;;5081479;28;45280;-75
2022/06/15 01:41:17;;;;;;;5.60;1.98;;;17.70;85.50;;;;;;5078717;28;45192;-75
2022/06/15 01:43:50;;;;;;;8.60;2.45;;;17.60;86.30;;;;;;5087196;27;45406;-75
2022/06/15 01:46:18;;;;;;;5.65;2.08;;;17.70;86.20;;;;;;5082486;27;45236;-75
2022/06/15 01:48:47;;;;;;;5.18;1.52;;;17.70;86.10;;;;;;5081085;28;47929;-75
2022/06/15 01:51:20;;;;;;;5.05;2.13;;;17.80;86.00;;;;;;5079189;28;46154;-75
2022/06/15 01:53:52;;;;;;;9.80;2.72;;;17.70;85.90;;;;;;5082334;27;45320;-75
2022/06/15 01:56:23;;;;;;;6.05;2.20;;;17.70;85.90;;;;;;5092318;27;45317;-75
2022/06/15 01:58:56;;;;;;;4.47;1.90;;;17.70;86.20;;;;;;5085668;27;47830;-75
2022/06/15 02:01:29;;;;;;;5.32;2.00;;;17.70;86.10;;;;;;5083714;27;45369;-75
2022/06/15 02:07:28;;;;;;;6.70;2.47;;;17.80;86.00;;;;;;5077195;28;45139;-75
2022/06/15 02:10:00;;;;;;;5.40;1.92;;;17.80;85.90;;;;;;5098915;27;45423;-75
2022/06/15 02:12:32;;;;;;;7.80;1.95;;;17.70;86.60;;;;;;5093559;27;45254;-75
2022/06/15 02:14:59;;;;;;;4.18;1.98;;;17.70;86.60;;;;;;5092588;27;45311;-75
2022/06/15 02:17:31;;;;;;;10.45;2.35;;;17.70;86.70;;;;;;5090587;27;45302;-75
2022/06/15 02:20:03;;;;;;;6.28;2.10;;;17.60;86.80;;;;;;5103788;27;48182;-75
2022/06/15 02:22:33;;;;;;;4.40;2.17;;;17.50;87.70;;;;;;5090702;27;45150;-75
2022/06/15 02:25:04;;;;;;;4.50;1.90;;;17.40;87.60;;;;;;5099834;27;45261;-75
2022/06/15 02:27:54;;;;;;;3.97;1.90;;;17.30;88.10;;;;;;5094484;27;45678;-75
2022/06/15 02:30:24;;;;;;;5.38;1.95;;;17.30;88.60;;;;;;5085533;27;45749;-75
2022/06/15 02:32:53;;;;;;;4.22;2.00;;;17.10;89.10;;;;;;5097608;27;45398;-75
2022/06/15 02:35:22;;;;;;;4.22;1.92;;;17.20;89.30;;;;;;5093008;27;45314;-75
2022/06/15 02:37:51;;;;;;;10.43;2.10;;;17.20;89.90;;;;;;5089688;27;45153;-75
2022/06/15 02:40:21;;;;;;;5.68;2.35;;;17.10;90.00;;;;;;5080258;27;45501;-75
2022/06/15 02:42:49;;;;;;;3.85;1.50;;;17.20;90.30;;;;;;5083847;28;45275;-75
2022/06/15 02:45:19;;;;;;;8.77;2.00;;;17.30;90.50;;;;;;5088548;27;45358;-75
2022/06/15 02:47:47;;;;;;;6.57;2.00;;;17.40;90.20;;;;;;5087939;27;45248;-75
2022/06/15 02:50:20;;;;;;;6.25;2.10;;;17.40;90.20;;;;;;5089657;27;46621;-75
2022/06/15 02:52:52;;;;;;;3.75;1.98;;;17.30;90.10;;;;;;5085283;27;45286;-75
2022/06/15 02:55:21;;;;;;;5.95;1.90;;;17.50;90.40;;;;;;5087203;27;46678;-75
2022/06/15 02:57:51;;;;;;;2.25;1.55;;;17.60;90.20;;;;;;5090875;27;45685;-75
2022/06/15 03:00:20;;;;;;;7.40;2.08;;;17.60;90.30;;;;;;5075205;28;45985;-75
2022/06/15 03:02:47;;;;;;;7.90;2.17;;;17.60;90.00;;;;;;5081180;28;45263;-75
2022/06/15 03:05:15;;;;;;;5.38;1.90;;;17.60;90.10;;;;;;5077954;28;45260;-75
2022/06/15 03:07:43;;;;;;;5.68;1.90;;;17.60;90.20;;;;;;5077979;28;45208;-75
2022/06/15 03:10:10;;;;;;;5.70;1.60;;;17.50;90.50;;;;;;5083124;28;45307;-75
2022/06/15 03:12:37;;;;;;;5.70;2.00;;;17.60;90.50;;;;;;5099405;27;45187;-75
2022/06/15 03:15:04;;;;;;;4.07;1.90;;;17.40;90.30;;;;;;5074824;27;45156;-75
2022/06/15 03:17:31;;;;;;;10.45;1.88;;;17.40;90.30;;;;;;5073120;28;45199;-75
2022/06/15 03:19:58;;;;;;;6.88;2.50;;;17.40;91.10;;;;;;5070197;28;46610;-75
2022/06/15 03:22:26;;;;;;;5.22;1.70;;;17.40;90.60;;;;;;5083628;28;45413;-75
2022/06/15 03:24:53;;;;;;;4.82;2.00;;;17.40;90.50;;;;;;5080616;28;45488;-75
2022/06/15 03:27:20;;;;;;;3.40;1.48;;;17.30;90.50;;;;;;5082900;28;45321;-75
2022/06/15 03:29:47;;;;;;;7.53;1.92;;;17.30;90.70;;;;;;5080712;28;45488;-75
2022/06/15 03:32:15;;;;;;;10.63;2.30;;;17.40;90.70;;;;;;5089080;27;45363;-75
2022/06/15 03:34:42;;;;;;;9.15;2.35;;;17.60;90.90;;;;;;5085176;28;45503;-75
2022/06/15 03:37:10;;;;;;;5.45;2.13;;;17.40;90.90;;;;;;5080502;28;45450;-75
2022/06/15 03:39:39;;;;;;;6.85;2.15;;;17.40;90.70;;;;;;5081169;28;47557;-75
2022/06/15 03:42:10;;;;;;;5.68;2.13;;;17.50;90.60;;;;;;5081927;28;45157;-75
2022/06/15 03:44:38;;;;;;;6.50;1.83;;;17.40;90.80;;;;;;5083876;28;45232;-75
2022/06/15 03:47:05;;;;;;;11.10;2.20;;;17.40;90.80;;;;;;5088937;27;45815;-75
2022/06/15 03:49:32;;;;;;;4.55;1.80;;;17.40;90.50;;;;;;5098628;27;46763;-75
2022/06/15 03:51:59;;;;;;;6.85;1.80;;;17.40;90.80;;;;;;5095394;27;45144;-75
2022/06/15 03:54:26;;;;;;;6.32;1.83;;;17.50;91.60;;;;;;5076335;28;45206;-75
2022/06/15 03:56:54;;;;;;;3.50;1.67;;;17.50;90.60;;;;;;5085592;28;45296;-75
2022/06/15 03:59:22;;;;;;;8.25;1.73;;;17.60;91.10;;;;;;5080896;28;47104;-75
2022/06/15 04:01:49;;;;;;;4.35;1.90;;;17.60;90.50;;;;;;5079189;28;45165;-75
2022/06/15 04:04:16;;;;;;;13.30;2.15;;;17.60;91.10;;;;;;5084964;27;45170;-75
2022/06/15 04:06:44;;;;;;;6.03;2.40;;;17.60;90.60;;;;;;5087790;27;45412;-75
2022/06/15 04:09:09;;;;;;;5.80;1.90;;;17.50;90.50;;;;;;5089010;27;46619;-75
2022/06/15 04:14:22;;;;;;;4.57;1.92;;;17.40;90.60;;;;;;5087467;27;45418;-75
2022/06/15 04:16:53;;;;;;;7.32;1.95;;;17.40;90.60;;;;;;5277943;22;45218;-76
2022/06/15 04:19:20;;;;;;;7.90;2.08;;;17.50;91.50;;;;;;5084668;28;45221;-76
2022/06/15 04:21:47;;;;;;;8.10;2.00;;;17.60;91.00;;;;;;5085471;28;45807;-76
2022/06/15 04:24:14;;;;;;;6.97;1.88;;;17.60;90.90;;;;;;5081111;28;45253;-76
2022/06/15 04:26:42;;;;;;;5.63;2.20;;;17.60;90.70;;;;;;5084374;28;46573;-76
2022/06/15 04:29:09;;;;;;;5.65;2.00;;;17.50;91.10;;;;;;5078824;28;46292;-76
2022/06/15 04:31:38;;;;;;;7.43;2.00;;;17.60;91.40;;;;;;5087998;27;45379;-76
2022/06/15 04:34:05;;;;;;;6.30;2.28;;;17.60;90.80;;;;;;5083654;27;45235;-76
2022/06/15 04:36:32;;;;;;;5.85;2.00;;;17.60;90.80;;;;;;5091157;27;45373;-76
2022/06/15 04:39:01;;;;;;;6.15;1.92;;;17.60;91.10;;;;;;5083162;28;46292;-76
2022/06/15 04:41:27;;;;;;;8.10;2.20;;;18.50;91.50;;;;;;5081178;28;45381;-76
2022/06/15 04:43:54;;;;;;;7.10;2.03;;;17.60;91.20;;;;;;5083011;28;45213;-76
2022/06/15 04:46:21;;;;;;;5.60;1.90;;;17.70;90.80;;;;;;5082303;28;45596;-76
2022/06/15 04:48:49;;;;;;;8.13;2.10;;;17.70;90.70;;;;;;5088427;27;46643;-76
2022/06/15 04:51:20;;;;;;;5.85;1.80;;;17.80;91.50;;;;;;5091371;27;45541;-76
2022/06/15 04:53:46;;;;;;;6.30;1.80;;;17.90;90.70;;;;;;5087746;27;45319;-76
2022/06/15 04:56:13;;;;;;;7.30;2.20;;;17.90;91.40;;;;;;5085505;27;45203;-76
2022/06/15 04:58:41;;;;;;;7.05;2.60;;;17.90;90.80;;;;;;5082654;28;46177;-76
2022/06/15 05:01:08;;;;;;;5.90;2.20;;;17.90;90.60;;;;;;5078524;28;45834;-76
2022/06/15 05:03:37;;;;;;;5.10;1.80;;;17.90;90.70;;;;;;5088130;27;45458;-76
2022/06/15 05:06:11;;;;;;;4.80;2.03;;;18.10;90.80;;;;;;5084911;27;45418;-76
2022/06/15 05:08:38;;;;;;;7.95;2.33;;;18.00;90.70;;;;;;5084229;28;46660;-76
2022/06/15 05:11:05;;;;;;;8.68;2.13;;;18.00;90.60;;;;;;5078644;28;45288;-76
2022/06/15 05:13:32;;;;;;;4.90;2.20;;;18.10;91.10;;;;;;5079560;28;45287;-76
2022/06/15 05:15:59;;;;;;;6.55;2.00;;;18.10;90.70;;;;;;5089791;27;45231;-76
2022/06/15 05:18:26;;;;;;;7.00;2.70;;;18.10;91.10;;;;;;5087206;27;47183;-76
2022/06/15 05:20:53;;;;;;;6.25;2.10;;;18.20;91.20;;;;;;5077445;28;45837;-76
2022/06/15 05:23:21;;;;;;;5.07;2.15;;;18.20;90.80;;;;;;5083129;28;45421;-76
2022/06/15 05:25:48;;;;;;;5.22;1.90;;;18.20;90.40;;;;;;5090767;27;45355;-76
2022/06/15 05:28:15;;;;;;;8.82;2.83;;;18.20;90.70;;;;;;5085367;27;47631;-76
2022/06/15 05:30:42;;;;;;;9.57;3.08;;;18.30;90.80;;;;;;5086149;27;45397;-76
2022/06/15 05:33:09;;;;;;;9.10;2.47;;;18.30;90.40;;;;;;5098942;27;45201;-76
2022/06/15 05:35:36;;;;;;;8.60;2.65;;;18.40;90.30;;;;;;5084412;27;45492;-76
2022/06/15 05:38:03;;;;;;;7.22;2.65;;;18.40;90.90;;;;;;5076432;28;46583;-76
2022/06/15 05:40:31;;;;;;;8.93;2.80;;;18.60;90.60;;;;;;5083975;27;45238;-76
2022/06/15 05:42:58;;;;;;;10.30;3.08;;;18.50;90.30;;;;;;5091296;27;45725;-76
2022/06/15 05:45:25;;;;;;;7.10;3.17;;;18.50;90.20;;;;;;5082250;27;45535;-76
2022/06/15 05:47:52;;;;;;;8.02;3.00;;;18.50;90.10;;;;;;5088023;27;46181;-76
2022/06/15 05:50:19;;;;;;;10.90;2.85;;;18.60;90.60;;;;;;5088767;27;45274;-76
2022/06/15 05:52:46;;;;;;;7.82;3.00;;;18.50;90.40;;;;;;5084659;27;45196;-76
2022/06/15 05:55:13;;;;;;;7.47;2.85;;;18.50;90.30;;;;;;5086184;27;45462;-76
2022/06/15 05:57:41;;;;;;;10.45;2.67;;;18.60;90.70;;;;;;5081288;28;46878;-76
2022/06/15 06:00:09;;;;;;;7.18;2.58;;;18.60;90.40;;;;;;5082755;28;45506;-75
2022/06/15 06:02:36;;;;;;;7.57;2.63;;;18.70;90.40;;;;;;5081132;27;45308;-75
2022/06/15 06:05:03;;;;;;;23.75;3.85;;;18.70;90.50;;;;;;5088016;27;45297;-76
2022/06/15 06:07:30;;;;;;;8.70;2.70;;;18.70;90.40;;;;;;5086544;27;46536;-76
2022/06/15 06:09:57;;;;;;;9.68;2.85;;;18.60;90.90;;;;;;5090049;27;45174;-75
2022/06/15 06:12:23;;;;;;;9.25;3.03;;;18.70;91.70;;;;;;5083459;27;45370;-75
2022/06/15 06:14:53;;;;;;;10.85;2.95;;;18.60;90.20;;;;;;5082017;27;45215;-76
2022/06/15 06:17:20;;;;;;;8.25;3.03;;;18.40;90.80;;;;;;5079527;28;46575;-76
2022/06/15 06:19:47;;;;;;;4.93;2.60;;;18.40;91.30;;;;;;5086672;28;45153;-76
2022/06/15 06:22:14;;;;;;;9.65;2.97;;;18.40;90.70;;;;;;5078114;28;45254;-76
2022/06/15 06:24:41;;;;;;;8.23;3.53;;;18.50;91.00;;;;;;5074687;28;45189;-75
2022/06/15 06:27:08;;;;;;;12.32;4.03;;;18.60;92.20;;;;;;5083264;28;46892;-76
2022/06/15 06:29:36;;;;;;;11.55;3.92;;;18.60;92.80;;;;;;5075826;27;45930;-76
2022/06/15 06:32:05;;;;;;;7.75;3.25;;;18.40;92.60;;;;;;5082434;27;45182;-75
2022/06/15 06:34:32;;;;;;;11.30;4.18;;;18.30;94.60;;;;;;5085949;27;45286;-75
2022/06/15 06:37:02;;;;;;;10.02;3.55;;;18.20;94.10;;;;;;5091581;27;46368;-76
2022/06/15 06:39:31;;;;;;;10.13;3.35;;;18.10;93.60;;;;;;5079262;27;45634;-76
2022/06/15 06:41:59;;;;;;;9.18;4.43;;;18.20;94.40;;;;;;5080600;27;45455;-76
2022/06/15 06:44:26;;;;;;;9.73;3.88;;;18.20;94.60;;;;;;5077708;27;45381;-75
2022/06/15 06:46:54;;;;;;;18.65;4.30;;;18.30;94.70;;;;;;5079604;27;45326;-76
2022/06/15 06:49:23;;;;;;;9.70;3.30;;;18.40;94.00;;;;;;5082355;27;45176;-76
2022/06/15 06:51:51;;;;;;;13.77;3.92;;;18.50;93.80;;;;;;5078618;27;45295;-76
2022/06/15 06:54:20;;;;;;;10.48;4.15;;;18.60;94.00;;;;;;5076124;28;45592;-76
2022/06/15 06:56:47;;;;;;;10.05;3.67;;;18.60;93.60;;;;;;5083802;28;47033;-76
2022/06/15 06:59:16;;;;;;;8.32;3.10;;;18.70;93.30;;;;;;5085027;28;45535;-76
2022/06/15 07:01:45;;;;;;;8.27;3.35;;;18.50;92.80;;;;;;5084023;28;45198;-76
2022/06/15 07:04:13;;;;;;;8.02;3.63;;;18.70;92.50;;;;;;5085192;28;45352;-76
2022/06/15 07:06:41;;;;;;;8.35;3.30;;;18.70;93.10;;;;;;5089259;27;46204;-76
2022/06/15 07:09:09;;;;;;;11.07;3.80;;;18.70;92.60;;;;;;5089402;27;45362;-76
2022/06/15 07:11:37;;;;;;;8.60;3.47;;;18.80;93.30;;;;;;5088045;28;45378;-76
2022/06/15 07:14:12;;;;;;;11.07;3.97;;;18.80;92.60;;;;;;5086849;28;45312;-76
2022/06/15 07:16:38;;;;;;;8.73;3.97;;;18.70;92.80;;;;;;5091259;27;45643;-76
2022/06/15 07:19:05;;;;;;;11.60;3.95;;;18.90;92.40;;;;;;5094085;27;45224;-76
2022/06/15 07:21:32;;;;;;;16.10;4.20;;;18.90;92.30;;;;;;5096108;27;45208;-76
2022/06/15 07:24:00;;;;;;;12.93;4.75;;;19.00;93.60;;;;;;5097631;27;45202;-76
2022/06/15 07:26:30;;;;;;;16.20;4.53;;;18.90;92.60;;;;;;5076927;27;46133;-76
2022/06/15 07:28:57;;;;;;;7.90;3.58;;;18.70;92.30;;;;;;5082304;27;45755;-75
2022/06/15 07:31:27;;;;;;;10.05;3.88;;;19.20;93.00;;;;;;5074750;27;45735;-76
2022/06/15 07:37:16;;;;;;;11.02;3.17;;;19.30;91.80;;;;;;5078077;27;45599;-76
2022/06/15 07:39:44;;;;;;;13.50;3.85;;;19.20;92.30;;;;;;5072552;27;45386;-75
2022/06/15 07:42:11;;;;;;;9.23;3.72;;;19.30;92.30;;;;;;5077423;28;45422;-75
2022/06/15 07:44:39;;;;;;;19.40;5.55;;;19.30;91.80;;;;;;5072572;28;45200;-75
2022/06/15 07:49:57;;;;;;;7.40;3.53;;;18.90;99.90;;;;;;5079474;27;45374;-76
2022/06/15 07:52:26;;;;;;;14.23;3.97;;;18.80;99.90;;;;;;5077375;27;45413;-75
2022/06/15 08:01:38;;;;;;;8.57;2.88;;;18.70;97.90;;;;;;5071840;27;45780;-76
2022/06/15 08:04:06;;;;;;;9.38;3.17;;;18.90;98.90;;;;;;5085167;27;45428;-76
2022/06/15 08:06:35;;;;;;;6.38;2.92;;;18.80;98.90;;;;;;5082922;27;45552;-76
2022/06/15 08:09:02;;;;;;;5.53;2.75;;;18.70;96.60;;;;;;5084561;27;46853;-76
2022/06/15 08:11:29;;;;;;;9.85;2.65;;;19.00;95.60;;;;;;5083639;28;45514;-75
2022/06/15 08:13:56;;;;;;;10.93;2.88;;;19.00;96.00;;;;;;5086568;27;45419;-76
2022/06/15 08:16:23;;;;;;;7.22;2.60;;;19.00;95.00;;;;;;5085114;27;45458;-75
2022/06/15 08:18:55;;;;;;;9.40;3.05;;;19.10;95.30;;;;;;5085538;27;47351;-75
2022/06/15 08:21:25;;;;;;;5.60;2.30;;;19.00;95.50;;;;;;5082389;28;45480;-75
2022/06/15 08:23:56;;;;;;;5.15;2.15;;;19.10;95.30;;;;;;5082111;28;45258;-76
2022/06/15 08:26:26;;;;;;;7.30;2.45;;;19.30;94.40;;;;;;5086844;27;45478;-76
2022/06/15 08:28:56;;;;;;;7.63;2.35;;;19.30;94.70;;;;;;5083182;27;47034;-78
2022/06/15 08:31:25;;;;;;;7.28;2.25;;;19.40;91.80;;;;;;5086572;27;45386;-78
2022/06/15 08:33:54;;;;;;;8.02;1.88;;;21.00;93.30;;;;;;5076114;27;45365;-76
2022/06/15 08:36:21;;;;;;;8.05;2.33;;;19.40;92.40;;;;;;5082668;27;46851;-76
2022/06/15 08:38:48;;;;;;;7.00;1.90;;;19.40;90.80;;;;;;5092420;27;48818;-76
2022/06/15 08:41:25;;;;;;;6.25;2.20;;;19.50;90.40;;;;;;5083146;27;45527;-75
2022/06/15 08:44:01;;;;;;;5.43;2.10;;;19.70;89.90;;;;;;5081723;27;45332;-76
2022/06/15 08:46:40;;;;;;;5.90;1.80;;;19.50;90.40;;;;;;5087292;27;45280;-76
2022/06/15 08:49:21;;;;;;;9.40;2.60;;;19.90;90.60;;;;;;5075160;27;46450;-76
2022/06/15 08:51:57;;;;;;;6.88;1.90;;;19.80;90.60;;;;;;5075945;27;45229;-76
2022/06/15 08:54:29;;;;;;;4.95;1.88;;;19.70;90.90;;;;;;5077786;28;45451;-75
2022/06/15 08:57:02;;;;;;;6.13;2.13;;;20.50;90.40;;;;;;5082416;28;45413;-76
2022/06/15 08:59:35;;;;;;;3.30;1.70;;;19.70;92.90;;;;;;5083339;27;45462;-76
2022/06/15 09:02:07;;;;;;;3.72;2.00;;;19.60;93.50;;;;;;5081344;27;45853;-76
2022/06/15 09:04:46;;;;;;;7.80;2.38;;;19.60;94.30;;;;;;5080828;27;46359;-76
2022/06/15 09:07:26;;;;;;;5.90;2.30;;;19.60;93.10;;;;;;5089930;27;45456;-75
2022/06/15 09:10:08;;;;;;;3.55;1.77;;;19.60;92.70;;;;;;5077368;28;47046;-76
2022/06/15 09:12:53;;;;;;;5.40;2.08;;;20.10;92.10;;;;;;5083158;28;45179;-76
2022/06/15 09:15:36;;;;;;;3.70;1.70;;;19.80;91.80;;;;;;5083522;27;45389;-75
2022/06/15 09:18:19;;;;;;;4.68;1.83;;;19.80;92.10;;;;;;5080177;27;45509;-75
2022/06/15 09:20:51;;;;;;;5.00;1.85;;;19.80;91.40;;;;;;5077927;28;46561;-76
2022/06/15 09:23:24;;;;;;;5.03;1.95;;;20.00;89.90;;;;;;5084062;28;46157;-75
2022/06/15 09:25:55;;;;;;;7.43;1.70;;;20.10;93.00;;;;;;5087072;27;45264;-76
2022/06/15 09:28:27;;;;;;;6.75;2.13;;;20.00;91.40;;;;;;5081836;27;45309;-76
2022/06/15 09:30:57;;;;;;;3.78;1.88;;;20.00;90.90;;;;;;5079613;27;46176;-75
2022/06/15 09:33:29;;;;;;;5.72;2.17;;;20.00;92.90;;;;;;5090478;27;45794;-76
2022/06/15 09:36:02;;;;;;;7.38;2.03;;;19.90;92.00;;;;;;5080165;27;45198;-76
2022/06/15 09:38:31;;;;;;;6.35;1.98;;;20.00;90.10;;;;;;5087562;27;45168;-76
2022/06/15 09:41:01;;;;;;;4.78;1.40;;;20.10;89.90;;;;;;5084975;27;46393;-76
2022/06/15 09:43:44;;;;;;;2.47;1.70;;;20.00;91.10;;;;;;5082857;28;45118;-76
2022/06/15 09:46:21;;;;;;;4.25;1.83;;;20.10;90.60;;;;;;5082771;27;45402;-76
2022/06/15 09:49:02;;;;;;;9.90;2.03;;;20.10;91.30;;;;;;5079664;27;45668;-76
2022/06/15 09:51:39;;;;;;;5.85;1.98;;;20.20;91.10;;;;;;5076972;28;45571;-76
2022/06/15 09:54:17;;;;;;;3.92;1.77;;;20.20;86.30;;;;;;5080528;28;45963;-76
2022/06/15 09:56:44;;;;;;;3.97;1.45;;;20.20;89.50;;;;;;5081369;28;45274;-76
2022/06/15 09:59:15;;;;;;;4.18;2.00;;;20.30;88.50;;;;;;5082084;28;45477;-75
2022/06/15 10:01:45;;;;;;;5.93;1.98;;;20.20;89.20;;;;;;5083845;28;48140;-76
2022/06/15 10:04:17;;;;;;;4.18;1.55;;;20.00;89.10;;;;;;5080800;28;45216;-76
2022/06/15 10:14:09;;;;;;;4.40;1.65;;;20.00;84.70;;;;;;5082842;28;45244;-75
2022/06/15 10:16:37;;;;;;;5.20;1.80;;;19.80;87.30;;;;;;5088475;27;45539;-75
2022/06/15 10:19:09;;;;;;;7.80;1.65;;;19.80;86.70;;;;;;5092195;27;45247;-75
2022/06/15 10:21:37;;;;;;;6.45;1.75;;;19.90;88.40;;;;;;5098827;27;45231;-74
2022/06/15 10:24:07;;;;;;;4.75;1.50;;;20.00;87.20;;;;;;5068470;28;47416;-74
2022/06/15 10:26:38;;;;;;;3.65;1.60;;;20.10;89.50;;;;;;5093425;27;45297;-74
2022/06/15 10:29:31;;;;;;;6.82;1.60;;;20.20;87.80;;;;;;5095294;27;45151;-74
2022/06/15 10:32:15;;;;;;;7.97;1.65;;;20.30;84.10;;;;;;5086550;27;45453;-74
2022/06/15 10:34:54;;;;;;;4.45;1.50;;;20.30;85.00;;;;;;5076968;27;45374;-74
2022/06/15 10:37:25;;;;;;;2.45;1.20;;;20.50;90.40;;;;;;5080554;27;45294;-74
2022/06/15 10:39:57;;;;;;;3.45;1.42;;;20.50;90.20;;;;;;5092470;27;45481;-74
2022/06/15 10:42:29;;;;;;;7.47;1.80;;;20.50;87.20;;;;;;5090395;27;45291;-74
2022/06/15 10:44:59;;;;;;;5.68;1.23;;;20.40;82.60;;;;;;5094531;27;47440;-74
2022/06/15 10:47:30;;;;;;;7.00;2.30;;;20.50;83.10;;;;;;5086555;27;45239;-74
2022/06/15 10:50:01;;;;;;;6.63;1.70;;;21.30;82.50;;;;;;5082456;28;45204;-74
2022/06/15 10:52:35;;;;;;;5.38;1.75;;;21.80;76.40;;;;;;5091854;27;45533;-75
2022/06/15 11:04:14;;;;;;;7.20;2.00;;;22.10;77.30;;;;;;5072702;27;45432;-75
2022/06/15 11:06:46;;;;;;;4.70;1.67;;;21.80;78.70;;;;;;5076077;27;45471;-75
2022/06/15 11:09:28;;;;;;;6.93;1.88;;;21.30;79.60;;;;;;5092155;27;45379;-75
2022/06/15 11:11:56;;;;;;;4.95;1.75;;;21.00;80.10;;;;;;5082283;27;45493;-75
2022/06/15 11:14:27;;;;;;;5.13;1.70;;;20.90;82.60;;;;;;5093982;27;45344;-75
2022/06/15 11:19:56;;;;;;;2.22;1.27;;;20.60;82.90;;;;;;5093625;27;45292;-75
2022/06/15 11:22:26;;;;;;;4.93;1.70;;;20.60;83.10;;;;;;5080229;28;45157;-75
2022/06/15 11:25:00;;;;;;;2.70;1.40;;;20.60;85.70;;;;;;5089214;27;45637;-75
2022/06/15 11:27:33;;;;;;;7.18;1.77;;;20.60;87.50;;;;;;5094435;27;48365;-75
2022/06/15 11:30:06;;;;;;;8.65;1.58;;;20.60;83.40;;;;;;5077714;27;46859;-75
2022/06/15 11:32:44;;;;;;;4.18;1.65;;;20.60;81.90;;;;;;5084970;27;45257;-75
2022/06/15 11:35:34;;;;;;;5.90;1.70;;;20.60;82.50;;;;;;5076134;28;45216;-74
2022/06/15 11:38:09;;;;;;;9.40;1.85;;;20.60;81.30;;;;;;5085959;27;46473;-74
2022/06/15 11:40:42;;;;;;;9.52;2.25;;;20.70;82.10;;;;;;5082572;27;46901;-74
2022/06/15 11:43:16;;;;;;;4.88;1.80;;;20.90;81.20;;;;;;5086499;27;45490;-75
2022/06/15 11:45:57;;;;;;;3.15;1.67;;;20.80;84.10;;;;;;5084642;27;45443;-74
2022/06/15 11:48:34;;;;;;;5.05;1.80;;;20.70;84.00;;;;;;5087449;27;45323;-74
2022/06/15 11:51:10;;;;;;;2.97;1.40;;;20.60;82.40;;;;;;5080596;27;45520;-74
2022/06/15 11:53:48;;;;;;;4.72;1.90;;;20.60;83.50;;;;;;5086611;27;46345;-77
2022/06/15 11:56:20;;;;;;;7.10;1.70;;;20.60;84.90;;;;;;5089801;27;45290;-77
2022/06/15 11:58:58;;;;;;;13.02;1.77;;;20.40;81.20;;;;;;5083362;27;45322;-74
2022/06/15 12:01:40;;;;;;;5.07;1.90;;;20.80;79.00;;;;;;5083684;27;45282;-74
2022/06/15 12:04:28;;;;;;;5.22;1.45;;;20.90;81.00;;;;;;5101953;27;45498;-74
2022/06/15 12:07:06;;;;;;;5.32;1.63;;;21.00;88.70;;;;;;5096175;27;45280;-74
2022/06/15 12:09:44;;;;;;;6.45;1.75;;;21.10;83.50;;;;;;5088861;27;46257;-74
2022/06/15 12:15:05;;;;;;;3.78;1.75;;;21.10;84.90;;;;;;5097185;27;45223;-74
2022/06/15 12:17:37;;;;;;;4.43;1.85;;;21.20;90.30;;;;;;5100299;27;45403;-74
2022/06/15 12:20:17;;;;;;;3.08;1.42;;;21.30;90.20;;;;;;5102061;27;47063;-74
2022/06/15 12:22:50;;;;;;;8.05;1.80;;;21.40;90.00;;;;;;5095272;27;45203;-74
2022/06/15 12:25:23;;;;;;;6.88;1.75;;;21.60;85.60;;;;;;5089011;28;45286;-74
2022/06/15 12:27:55;;;;;;;2.30;1.20;;;21.80;79.80;;;;;;5082542;28;45267;-74
2022/06/15 12:30:36;;;;;;;2.35;1.40;;;21.90;86.60;;;;;;5094670;27;47271;-74
2022/06/15 12:33:13;;;;;;;12.90;1.92;;;22.10;85.60;;;;;;5074333;27;45393;-74
2022/06/15 12:35:44;;;;;;;4.88;1.55;;;22.30;81.70;;;;;;5077228;27;46051;-74
2022/06/15 12:38:21;;;;;;;5.45;1.30;;;22.20;91.00;;;;;;5088335;27;45227;-75
2022/06/15 12:40:51;;;;;;;5.35;1.02;;;22.20;84.00;;;;;;5083944;27;45303;-74
2022/06/15 12:43:30;;;;;;;6.05;1.55;;;22.30;88.80;;;;;;5073871;27;45389;-74
2022/06/15 12:46:06;;;;;;;4.45;1.58;;;22.30;81.40;;;;;;5070591;27;45750;-75
2022/06/15 12:48:49;;;;;;;4.00;1.70;;;22.50;83.20;;;;;;5082171;27;45604;-74
2022/06/15 12:51:22;;;;;;;5.35;1.90;;;22.30;88.90;;;;;;5082223;27;45277;-74
2022/06/15 12:54:04;;;;;;;4.72;1.58;;;22.30;91.60;;;;;;5079555;27;45378;-74
2022/06/15 12:56:38;;;;;;;4.63;1.75;;;22.10;90.80;;;;;;5082917;28;45627;-74
2022/06/15 12:59:19;;;;;;;2.63;1.30;;;22.10;90.40;;;;;;5084019;28;45417;-74
2022/06/15 13:01:49;;;;;;;9.43;1.60;;;22.20;84.40;;;;;;5082592;28;45482;-74
2022/06/15 13:04:22;;;;;;;5.72;1.42;;;22.30;79.40;;;;;;5081136;28;45226;-74
2022/06/15 13:07:18;;;;;;;8.68;1.67;;;22.60;74.70;;;;;;5079697;27;45325;-75
2022/06/15 13:10:13;;;;;;;4.97;2.13;;;22.70;78.30;;;;;;5097295;27;45273;-75
2022/06/15 13:12:43;;;;;;;6.82;1.25;;;22.70;75.00;;;;;;5089046;28;47339;-73
2022/06/15 13:15:20;;;;;;;5.90;1.67;;;22.80;74.30;;;;;;5088018;28;45197;-73
2022/06/15 13:18:09;;;;;;;2.92;1.30;;;22.70;80.70;;;;;;5088817;27;45511;-73
2022/06/15 13:21:01;;;;;;;3.00;1.30;;;22.60;84.30;;;;;;5099852;27;45299;-73
2022/06/15 13:23:36;;;;;;;3.25;1.80;;;22.60;83.50;;;;;;5068843;28;47084;-73
2022/06/15 13:26:08;;;;;;;3.85;1.70;;;22.40;90.00;;;;;;5081081;28;45254;-73
2022/06/15 13:28:38;;;;;;;3.00;1.30;;;22.30;91.80;;;;;;5069305;28;45189;-73
2022/06/15 13:31:08;;;;;;;3.55;1.55;;;22.30;92.20;;;;;;5081981;28;45229;-73
2022/06/15 13:33:58;;;;;;;3.42;1.30;;;22.10;91.70;;;;;;5075562;28;45319;-73
2022/06/15 13:36:25;;;;;;;5.45;1.23;;;22.00;91.00;;;;;;5078404;27;45642;-73
2022/06/15 13:38:53;;;;;;;3.90;1.30;;;21.90;89.80;;;;;;5079801;27;45235;-73
2022/06/15 13:41:27;;;;;;;4.68;1.63;;;21.90;88.70;;;;;;5073490;27;45675;-74
2022/06/15 13:44:19;;;;;;;6.35;1.52;;;21.80;83.50;;;;;;5078260;27;45292;-74
2022/06/15 13:47:01;;;;;;;3.38;1.30;;;21.80;83.40;;;;;;5083953;27;45259;-73
2022/06/15 13:49:40;;;;;;;6.25;1.35;;;21.90;78.40;;;;;;5079650;27;45307;-72